Terminal Aerodrome Forecast
Issued by NWS

Home | Current Version | Previous Version | Text Only | Print | Product List | Glossary On
Versions: 1 2 3 4 5 6 7 8 9 10 11 12 13 14 15 16 17 18 19 20 21 22 23 24 25 26 27 28 29 30 31 32 33 34 35
000
FTAK31 PANC 051749
TAFATK
TAF
PATK 051749Z 0518/0618 VRB02KT P6SM VCSH BKN035
      TEMPO 0518/0522 5SM -SHRA BR BKN025
     FM052200 VRB02KT 6SM -RASN BR BKN025
     FM060200 VRB03KT 4SM -SN BR SCT010 OVC020
     FM060600 VRB03KT 1SM -SN BR VV008
     FM061400 VRB03KT 3SM -SN BR SCT008 BKN015=

USA.gov is the U.S. government's official web portal to all federal, state and local government web resources and services.